createdAt,value
2023-02-21T00:00:59.245Z,100.00
2023-02-21T00:03:51.976Z,100.00
2023-02-21T00:06:42.094Z,100.00
2023-02-21T00:09:32.391Z,100.00
2023-02-21T00:12:23.091Z,100.00
2023-02-21T00:15:14.612Z,100.00
2023-02-21T00:18:04.924Z,100.00
2023-02-21T00:20:55.800Z,100.00
2023-02-21T00:23:45.983Z,100.00
2023-02-21T00:26:37.256Z,100.00
2023-02-21T00:29:27.645Z,100.00
2023-02-21T00:32:20.242Z,100.00
2023-02-21T00:35:11.038Z,100.00
2023-02-21T00:38:01.398Z,100.00
2023-02-21T00:40:51.686Z,100.00
2023-02-21T00:43:47.377Z,100.00
2023-02-21T00:46:37.781Z,100.00
2023-02-21T00:49:29.364Z,100.00
2023-02-21T00:52:19.619Z,100.00
2023-02-21T00:55:09.854Z,100.00
2023-02-21T00:58:00.078Z,100.00
2023-02-21T01:00:50.398Z,100.00
2023-02-21T01:03:40.942Z,100.00
2023-02-21T01:06:32.478Z,100.00
2023-02-21T01:09:22.681Z,100.00
2023-02-21T01:12:12.938Z,100.00
2023-02-21T01:15:04.946Z,100.00
2023-02-21T01:17:55.195Z,100.00
2023-02-21T01:20:45.493Z,100.00
2023-02-21T01:23:37.088Z,100.00
2023-02-21T01:26:27.889Z,100.00
2023-02-21T01:29:21.926Z,100.00
2023-02-21T01:32:12.333Z,100.00
2023-02-21T01:35:03.159Z,100.00
2023-02-21T01:37:53.434Z,100.00
2023-02-21T01:40:45.376Z,100.00
2023-02-21T01:43:38.185Z,100.00
2023-02-21T01:46:30.501Z,100.00
2023-02-21T01:49:28.449Z,100.00
2023-02-21T01:52:19.831Z,100.00
2023-02-21T01:55:12.190Z,100.00
2023-02-21T01:58:05.516Z,100.00
2023-02-21T02:00:56.862Z,100.00
2023-02-21T02:03:49.507Z,100.00
2023-02-21T02:06:39.890Z,100.00
2023-02-21T02:09:35.619Z,100.00
2023-02-21T02:12:25.917Z,100.00
2023-02-21T02:15:15.828Z,100.00
2023-02-21T02:18:07.356Z,100.00
2023-02-21T02:20:58.109Z,100.00
2023-02-21T02:24:14.408Z,100.00
2023-02-21T02:27:26.726Z,100.00
2023-02-21T02:30:28.942Z,100.00
2023-02-21T02:33:31.571Z,100.00
2023-02-21T02:36:10.888Z,100.00
2023-02-21T02:38:54.881Z,100.00
2023-02-21T02:41:38.880Z,100.00
2023-02-21T02:44:16.505Z,100.00
2023-02-21T02:46:51.722Z,100.00
2023-02-21T02:49:29.339Z,100.00
2023-02-21T02:52:07.342Z,100.00
2023-02-21T02:54:40.304Z,100.00
2023-02-21T02:57:14.727Z,100.00
2023-02-21T02:59:48.978Z,100.00
2023-02-21T03:02:35.414Z,100.00
2023-02-21T03:05:31.405Z,100.00
2023-02-21T03:08:15.522Z,100.00
2023-02-21T03:10:54.325Z,100.00
2023-02-21T03:13:36.890Z,100.00
2023-02-21T03:16:19.023Z,100.00
2023-02-21T03:18:56.602Z,100.00
2023-02-21T03:21:32.537Z,100.00
2023-02-21T03:24:11.870Z,100.00
2023-02-21T03:26:49.496Z,100.00
2023-02-21T03:29:45.974Z,100.00
2023-02-21T03:32:22.276Z,100.00
2023-02-21T03:34:55.439Z,100.00
2023-02-21T03:37:32.741Z,100.00
2023-02-21T03:40:11.543Z,100.00
2023-02-21T03:42:44.481Z,100.00
2023-02-21T03:45:17.981Z,100.00
2023-02-21T03:48:01.149Z,100.00
2023-02-21T03:50:34.083Z,100.00
2023-02-21T03:53:09.529Z,100.00
2023-02-21T03:55:44.928Z,100.00
2023-02-21T03:58:24.184Z,100.00
2023-02-21T04:00:57.636Z,100.00
2023-02-21T04:03:31.120Z,100.00
2023-02-21T04:06:08.843Z,100.00
2023-02-21T04:08:41.888Z,100.00
2023-02-21T04:11:17.820Z,100.00
2023-02-21T04:13:50.988Z,100.00
2023-02-21T04:16:24.294Z,100.00
2023-02-21T04:18:59.024Z,100.00
2023-02-21T04:21:34.851Z,100.00
2023-02-21T04:24:08.170Z,100.00
2023-02-21T04:26:43.475Z,100.00
2023-02-21T04:29:16.817Z,100.00
2023-02-21T04:31:50.052Z,100.00
2023-02-21T04:34:23.574Z,100.00
2023-02-21T04:36:58.870Z,100.00
2023-02-21T04:39:32.274Z,100.00
2023-02-21T04:42:06.794Z,100.00
2023-02-21T04:44:41.525Z,100.00
2023-02-21T04:47:16.970Z,100.00
2023-02-21T04:49:51.728Z,100.00
2023-02-21T04:52:24.772Z,100.00
2023-02-21T04:54:58.235Z,100.00
2023-02-21T04:57:32.918Z,100.00
2023-02-21T05:00:28.876Z,100.00
2023-02-21T05:03:03.619Z,100.00
2023-02-21T05:05:38.289Z,100.00
2023-02-21T05:08:13.258Z,100.00
2023-02-21T05:10:47.016Z,100.00
2023-02-21T05:13:25.908Z,100.00
2023-02-21T05:16:00.193Z,100.00
2023-02-21T05:18:37.483Z,100.00
2023-02-21T05:21:10.550Z,100.00
2023-02-21T05:23:56.073Z,100.00
2023-02-21T05:26:33.856Z,100.00
2023-02-21T05:29:10.258Z,100.00
2023-02-21T05:31:43.287Z,100.00
2023-02-21T05:34:17.368Z,100.00
2023-02-21T05:36:50.389Z,100.00
2023-02-21T05:39:23.244Z,100.00
2023-02-21T05:41:57.066Z,100.00
2023-02-21T05:44:31.575Z,100.00
2023-02-21T05:47:04.510Z,100.00
2023-02-21T05:49:37.273Z,100.00
2023-02-21T05:52:12.857Z,100.00
2023-02-21T05:54:45.860Z,100.00
2023-02-21T05:57:19.989Z,100.00
2023-02-21T05:59:54.334Z,100.00
2023-02-21T06:02:27.148Z,100.00
2023-02-21T06:05:00.102Z,100.00
2023-02-21T06:07:33.106Z,100.00
2023-02-21T06:10:06.753Z,100.00
2023-02-21T06:12:39.644Z,100.00
2023-02-21T06:15:13.922Z,100.00
2023-02-21T06:17:46.746Z,100.00
2023-02-21T06:20:19.785Z,100.00
2023-02-21T06:22:52.688Z,100.00
2023-02-21T06:25:25.528Z,100.00
2023-02-21T06:27:58.373Z,100.00
2023-02-21T06:30:32.863Z,100.00
2023-02-21T06:33:05.722Z,100.00
2023-02-21T06:35:38.535Z,100.00
2023-02-21T06:38:11.512Z,100.00
2023-02-21T06:40:45.019Z,100.00
2023-02-21T06:43:18.054Z,100.00
2023-02-21T06:45:52.260Z,100.00
2023-02-21T06:48:25.022Z,100.00
2023-02-21T06:50:57.905Z,100.00
2023-02-21T06:53:30.805Z,100.00
2023-02-21T06:56:03.655Z,100.00
2023-02-21T06:58:36.763Z,100.00
2023-02-21T07:01:11.207Z,100.00
2023-02-21T07:03:45.248Z,100.00
2023-02-21T07:06:18.351Z,100.00
2023-02-21T07:08:51.840Z,100.00
2023-02-21T07:11:24.623Z,100.00
2023-02-21T07:13:59.289Z,100.00
2023-02-21T07:16:33.622Z,100.00
2023-02-21T07:19:06.558Z,100.00
2023-02-21T07:21:39.367Z,100.00
2023-02-21T07:24:12.246Z,100.00
2023-02-21T07:26:45.046Z,100.00
2023-02-21T07:29:18.390Z,100.00
2023-02-21T07:31:53.221Z,100.00
2023-02-21T07:34:25.961Z,100.00
2023-02-21T07:36:58.707Z,100.00
2023-02-21T07:39:31.734Z,100.00
2023-02-21T07:42:04.573Z,100.00
2023-02-21T07:44:37.423Z,100.00
2023-02-21T07:47:11.852Z,100.00
2023-02-21T07:49:44.693Z,100.00
2023-02-21T07:52:17.521Z,100.00
2023-02-21T07:54:50.481Z,100.00
2023-02-21T07:57:25.906Z,100.00
2023-02-21T07:59:58.904Z,100.00
2023-02-21T08:02:42.055Z,100.00
2023-02-21T08:05:18.479Z,100.00
2023-02-21T08:07:55.945Z,100.00
2023-02-21T08:10:29.406Z,100.00
2023-02-21T08:13:02.384Z,100.00
2023-02-21T08:15:35.190Z,100.00
2023-02-21T08:18:18.580Z,100.00
2023-02-21T08:20:52.160Z,100.00
2023-02-21T08:23:25.603Z,100.00
2023-02-21T08:25:59.882Z,100.00
2023-02-21T08:28:43.837Z,100.00
2023-02-21T08:31:16.938Z,100.00
2023-02-21T08:33:51.246Z,100.00
2023-02-21T08:36:32.408Z,100.00
2023-02-21T08:39:06.703Z,100.00
2023-02-21T08:41:40.826Z,100.00
2023-02-21T08:44:16.876Z,100.00
2023-02-21T08:46:50.021Z,100.00
2023-02-21T08:49:24.596Z,100.00
2023-02-21T08:51:57.403Z,100.00
2023-02-21T08:54:30.594Z,100.00
2023-02-21T08:57:03.738Z,100.00
2023-02-21T08:59:40.215Z,100.00
2023-02-21T09:02:26.058Z,100.00
2023-02-21T09:05:00.508Z,100.00
2023-02-21T09:07:33.561Z,100.00
2023-02-21T09:10:09.776Z,100.00
2023-02-21T09:12:42.582Z,100.00
2023-02-21T09:15:16.287Z,100.00
2023-02-21T09:17:50.683Z,100.00
2023-02-21T09:20:26.574Z,100.00
2023-02-21T09:22:59.554Z,100.00
2023-02-21T09:25:32.300Z,100.00
2023-02-21T09:28:05.096Z,100.00
2023-02-21T09:30:37.948Z,100.00
2023-02-21T09:33:11.192Z,100.00
2023-02-21T09:35:45.377Z,100.00
2023-02-21T09:38:18.176Z,100.00
2023-02-21T09:40:56.185Z,100.00
2023-02-21T09:43:34.505Z,100.00
2023-02-21T09:46:14.138Z,100.00
2023-02-21T09:48:47.220Z,100.00
2023-02-21T09:51:21.514Z,100.00
2023-02-21T09:53:59.165Z,100.00
2023-02-21T09:56:36.334Z,100.00
2023-02-21T09:59:12.391Z,100.00
2023-02-21T10:01:57.681Z,100.00
2023-02-21T10:04:44.435Z,100.00
2023-02-21T10:07:26.609Z,100.00
2023-02-21T10:10:04.933Z,100.00
2023-02-21T10:12:45.966Z,100.00
2023-02-21T10:15:35.534Z,100.00
2023-02-21T10:18:20.903Z,100.00
2023-02-21T10:20:54.729Z,100.00
2023-02-21T10:23:34.891Z,100.00
2023-02-21T10:26:11.480Z,100.00
2023-02-21T10:28:44.994Z,100.00
2023-02-21T10:31:22.484Z,100.00
2023-02-21T10:33:55.475Z,100.00
2023-02-21T10:36:29.442Z,100.00
2023-02-21T10:39:11.844Z,100.00
2023-02-21T10:41:45.063Z,100.00
2023-02-21T10:44:24.385Z,100.00
2023-02-21T10:47:03.189Z,100.00
2023-02-21T10:49:42.078Z,100.00
2023-02-21T10:52:17.445Z,100.00
2023-02-21T10:55:09.738Z,100.00
2023-02-21T10:57:46.145Z,100.00
2023-02-21T11:00:26.649Z,100.00
2023-02-21T11:03:06.862Z,100.00
2023-02-21T11:05:39.845Z,100.00
2023-02-21T11:08:13.174Z,100.00
2023-02-21T11:10:47.750Z,100.00
2023-02-21T11:13:22.816Z,100.00
2023-02-21T11:16:11.558Z,100.00
2023-02-21T11:18:44.986Z,100.00
2023-02-21T11:21:20.258Z,100.00
2023-02-21T11:23:58.916Z,100.00
2023-02-21T11:26:38.648Z,100.00
2023-02-21T11:29:14.768Z,100.00
2023-02-21T11:31:47.892Z,100.00
2023-02-21T11:34:21.612Z,100.00
2023-02-21T11:37:04.092Z,100.00
2023-02-21T11:39:36.837Z,100.00
2023-02-21T11:45:25.069Z,100.00
2023-02-21T11:48:02.385Z,100.00
2023-02-21T11:50:40.216Z,100.00
2023-02-21T11:53:22.464Z,100.00
2023-02-21T11:56:03.750Z,100.00
2023-02-21T11:58:57.619Z,100.00
2023-02-21T12:01:38.936Z,100.00
2023-02-21T12:04:28.161Z,100.00
2023-02-21T12:07:07.288Z,100.00
2023-02-21T12:09:46.500Z,100.00
2023-02-21T12:12:33.477Z,100.00
2023-02-21T12:15:18.637Z,100.00
2023-02-21T12:18:25.534Z,100.00
2023-02-21T12:21:21.498Z,100.00
2023-02-21T12:24:00.746Z,100.00
2023-02-21T12:26:47.429Z,100.00
2023-02-21T12:29:34.362Z,100.00
2023-02-21T12:32:25.242Z,100.00
2023-02-21T12:35:31.018Z,100.00
2023-02-21T12:38:08.302Z,100.00
2023-02-21T12:40:48.178Z,100.00
2023-02-21T12:43:42.237Z,100.00
2023-02-21T12:46:22.756Z,100.00
2023-02-21T12:49:03.421Z,100.00
2023-02-21T12:51:42.380Z,100.00
2023-02-21T12:54:20.317Z,100.00
2023-02-21T12:56:58.915Z,100.00
2023-02-21T12:59:38.777Z,100.00
2023-02-21T13:02:16.868Z,100.00
2023-02-21T13:04:56.153Z,100.00
2023-02-21T13:07:36.146Z,100.00
2023-02-21T13:10:19.222Z,100.00
2023-02-21T13:12:58.170Z,100.00
2023-02-21T13:15:32.185Z,100.00
2023-02-21T13:18:12.632Z,100.00
2023-02-21T13:20:49.761Z,100.00
2023-02-21T13:24:06.146Z,100.00
2023-02-21T13:26:53.494Z,100.00
2023-02-21T13:29:30.162Z,100.00
2023-02-21T13:32:07.710Z,100.00
2023-02-21T13:34:45.730Z,100.00
2023-02-21T13:37:22.486Z,100.00
2023-02-21T13:40:07.157Z,100.00
2023-02-21T13:42:41.393Z,100.00
2023-02-21T13:45:21.998Z,100.00
2023-02-21T13:48:22.051Z,100.00
2023-02-21T13:50:56.343Z,100.00
2023-02-21T13:53:34.145Z,100.00
2023-02-21T13:56:17.116Z,100.00
2023-02-21T13:58:50.591Z,100.00
2023-02-21T14:01:50.005Z,99.96
2023-02-21T14:05:00.162Z,100.00
2023-02-21T14:07:59.372Z,99.92
2023-02-21T14:10:38.641Z,99.24
2023-02-21T14:13:25.444Z,99.98
2023-02-21T14:16:00.852Z,99.06
2023-02-21T14:18:43.881Z,99.00
2023-02-21T14:21:23.752Z,98.16
2023-02-21T14:24:00.378Z,98.41
2023-02-21T14:26:46.068Z,97.54
2023-02-21T14:29:39.350Z,96.98
2023-02-21T14:32:29.057Z,97.63
2023-02-21T14:35:03.887Z,97.68
2023-02-21T14:37:38.922Z,97.86
2023-02-21T14:40:25.720Z,98.49
2023-02-21T14:43:22.920Z,97.65
2023-02-21T14:46:17.920Z,99.08
2023-02-21T14:49:17.494Z,98.07
2023-02-21T14:52:24.475Z,98.34
2023-02-21T14:55:19.772Z,98.12
2023-02-21T14:58:27.274Z,98.25
2023-02-21T15:01:08.741Z,98.98
2023-02-21T15:03:48.398Z,98.57
2023-02-21T15:06:23.600Z,98.03
2023-02-21T15:08:56.439Z,98.26
2023-02-21T15:11:34.819Z,98.41
2023-02-21T15:14:23.871Z,98.10
2023-02-21T15:17:00.289Z,98.42
2023-02-21T15:19:35.504Z,98.42
2023-02-21T15:22:16.599Z,98.62
2023-02-21T15:25:13.072Z,98.55
2023-02-21T15:27:58.092Z,97.73
2023-02-21T15:30:40.011Z,99.18
2023-02-21T15:33:17.209Z,99.04
2023-02-21T15:35:54.037Z,98.54
2023-02-21T15:38:31.594Z,99.03
2023-02-21T15:41:10.971Z,99.11
2023-02-21T15:43:49.655Z,98.67
2023-02-21T15:46:26.680Z,98.95
2023-02-21T15:49:04.637Z,98.83
2023-02-21T15:51:39.088Z,98.94
2023-02-21T15:54:26.355Z,99.47
2023-02-21T15:57:04.009Z,99.17
2023-02-21T15:59:37.546Z,99.02
2023-02-21T16:02:15.933Z,98.27
2023-02-21T16:04:51.830Z,98.88
2023-02-21T16:07:33.803Z,99.12
2023-02-21T16:10:08.979Z,97.93
2023-02-21T16:12:44.653Z,98.13
2023-02-21T16:15:25.121Z,98.31
2023-02-21T16:18:03.279Z,99.00
2023-02-21T16:20:39.483Z,98.37
2023-02-21T16:23:25.751Z,98.30
2023-02-21T16:26:02.228Z,99.20
2023-02-21T16:28:35.086Z,98.34
2023-02-21T16:31:16.316Z,98.91
2023-02-21T16:33:51.388Z,99.54
2023-02-21T16:36:31.310Z,99.62
2023-02-21T16:39:04.257Z,99.34
2023-02-21T16:41:37.121Z,97.95
2023-02-21T16:44:10.194Z,97.85
2023-02-21T16:46:45.883Z,99.01
2023-02-21T16:49:18.725Z,98.39
2023-02-21T16:51:53.887Z,98.75
2023-02-21T16:54:26.846Z,97.85
2023-02-21T16:56:59.756Z,97.67
2023-02-21T16:59:32.746Z,97.62
2023-02-21T17:02:06.593Z,97.40
2023-02-21T17:04:39.434Z,97.96
2023-02-21T17:07:14.728Z,98.99
2023-02-21T17:09:47.512Z,98.96
2023-02-21T17:12:20.362Z,99.32
2023-02-21T17:14:53.265Z,99.67
2023-02-21T17:17:26.245Z,99.87
2023-02-21T17:19:59.366Z,100.00
2023-02-21T17:22:33.679Z,99.58
2023-02-21T17:25:08.138Z,99.62
2023-02-21T17:27:41.110Z,99.53
2023-02-21T17:30:15.038Z,99.65
2023-02-21T17:32:48.131Z,99.63
2023-02-21T17:35:22.473Z,99.38
2023-02-21T17:37:56.672Z,99.14
2023-02-21T17:40:29.948Z,98.70
2023-02-21T17:43:07.630Z,98.70
2023-02-21T17:45:40.407Z,98.89
2023-02-21T17:48:13.617Z,99.12
2023-02-21T17:50:46.663Z,99.05
2023-02-21T17:53:22.577Z,99.06
2023-02-21T17:55:56.134Z,98.57
2023-02-21T17:58:30.433Z,98.77
2023-02-21T18:01:03.435Z,98.95
2023-02-21T18:03:37.481Z,98.47
2023-02-21T18:06:10.749Z,98.79
2023-02-21T18:08:46.965Z,98.94
2023-02-21T18:11:20.112Z,98.52
2023-02-21T18:13:53.537Z,98.35
2023-02-21T18:16:26.464Z,98.27
2023-02-21T18:18:59.278Z,98.68
2023-02-21T18:21:32.165Z,98.92
2023-02-21T18:24:07.094Z,98.55
2023-02-21T18:26:40.058Z,98.78
2023-02-21T18:29:12.948Z,99.00
2023-02-21T18:31:45.803Z,99.38
2023-02-21T18:34:18.694Z,99.59
2023-02-21T18:36:53.847Z,98.87
2023-02-21T18:39:28.368Z,98.79
2023-02-21T18:42:01.212Z,99.12
2023-02-21T18:44:34.367Z,98.62
2023-02-21T18:47:07.908Z,99.06
2023-02-21T18:49:43.898Z,98.96
2023-02-21T18:52:17.408Z,98.58
2023-02-21T18:54:51.973Z,98.22
2023-02-21T18:57:25.339Z,99.09
2023-02-21T18:59:58.263Z,99.17
2023-02-21T19:02:31.315Z,98.97
2023-02-21T19:05:04.408Z,99.00
2023-02-21T19:07:37.783Z,99.91
2023-02-21T19:10:12.845Z,99.49
2023-02-21T19:12:45.862Z,100.00
2023-02-21T19:15:19.760Z,100.00
2023-02-21T19:17:52.555Z,99.48
2023-02-21T19:20:25.723Z,99.76
2023-02-21T19:22:58.647Z,99.62
2023-02-21T19:25:33.184Z,100.00
2023-02-21T19:28:06.827Z,99.81
2023-02-21T19:30:39.755Z,100.00
2023-02-21T19:33:12.629Z,100.00
2023-02-21T19:35:45.689Z,100.00
2023-02-21T19:38:18.718Z,100.00
2023-02-21T19:40:52.930Z,100.00
2023-02-21T19:43:26.045Z,100.00
2023-02-21T19:46:00.628Z,100.00
2023-02-21T19:48:33.476Z,100.00
2023-02-21T19:51:06.687Z,100.00
2023-02-21T19:53:39.937Z,100.00
2023-02-21T19:56:14.317Z,100.00
2023-02-21T19:58:49.346Z,100.00
2023-02-21T20:01:23.142Z,100.00
2023-02-21T20:03:56.127Z,100.00
2023-02-21T20:06:29.436Z,100.00
2023-02-21T20:09:02.872Z,100.00
2023-02-21T20:11:40.005Z,100.00
2023-02-21T20:14:14.526Z,100.00
2023-02-21T20:16:47.680Z,100.00
2023-02-21T20:19:22.456Z,100.00
2023-02-21T20:22:05.831Z,100.00
2023-02-21T20:24:44.100Z,100.00
2023-02-21T20:27:19.700Z,100.00
2023-02-21T20:29:52.518Z,100.00
2023-02-21T20:32:26.516Z,100.00
2023-02-21T20:34:59.366Z,100.00
2023-02-21T20:37:32.463Z,100.00
2023-02-21T20:40:08.040Z,100.00
2023-02-21T20:42:42.472Z,100.00
2023-02-21T20:45:15.453Z,100.00
2023-02-21T20:47:48.439Z,100.00
2023-02-21T20:50:23.869Z,100.00
2023-02-21T20:52:56.675Z,100.00
2023-02-21T20:55:29.444Z,100.00
2023-02-21T20:58:04.622Z,100.00
2023-02-21T21:00:38.764Z,100.00
2023-02-21T21:03:15.128Z,100.00
2023-02-21T21:05:48.967Z,100.00
2023-02-21T21:08:21.781Z,100.00
2023-02-21T21:10:54.990Z,100.00
2023-02-21T21:13:29.185Z,100.00
2023-02-21T21:16:02.002Z,100.00
2023-02-21T21:18:34.990Z,100.00
2023-02-21T21:21:08.126Z,100.00
2023-02-21T21:23:41.003Z,100.00
2023-02-21T21:26:14.292Z,100.00
2023-02-21T21:28:48.614Z,100.00
2023-02-21T21:31:23.531Z,100.00
2023-02-21T21:33:56.495Z,100.00
2023-02-21T21:36:29.398Z,100.00
2023-02-21T21:39:02.173Z,100.00
2023-02-21T21:41:37.518Z,100.00
2023-02-21T21:44:12.392Z,100.00
2023-02-21T21:46:46.862Z,100.00
2023-02-21T21:49:22.235Z,100.00
2023-02-21T21:51:56.607Z,100.00
2023-02-21T21:54:31.462Z,100.00
2023-02-21T21:57:05.287Z,100.00
2023-02-21T21:59:40.972Z,100.00
2023-02-21T22:02:14.052Z,100.00
2023-02-21T22:04:47.955Z,100.00
2023-02-21T22:07:20.825Z,100.00
2023-02-21T22:09:53.620Z,100.00
2023-02-21T22:12:27.937Z,100.00
2023-02-21T22:15:02.764Z,100.00
2023-02-21T22:17:35.382Z,100.00
2023-02-21T22:20:17.193Z,100.00
2023-02-21T22:22:51.426Z,100.00
2023-02-21T22:25:24.255Z,100.00
2023-02-21T22:27:58.912Z,100.00
2023-02-21T22:30:33.127Z,100.00
2023-02-21T22:33:06.356Z,100.00
2023-02-21T22:35:40.090Z,100.00
2023-02-21T22:38:14.447Z,100.00
2023-02-21T22:40:48.083Z,100.00
2023-02-21T22:43:20.933Z,100.00
2023-02-21T22:45:58.091Z,100.00
2023-02-21T22:48:30.872Z,100.00
2023-02-21T22:51:03.691Z,99.86
2023-02-21T22:53:36.477Z,98.71
2023-02-21T22:56:14.680Z,98.22
2023-02-21T22:58:48.718Z,97.32
2023-02-21T23:01:26.305Z,97.05
2023-02-21T23:04:10.473Z,96.77
2023-02-21T23:06:44.372Z,97.25
2023-02-21T23:09:17.825Z,97.38
2023-02-21T23:11:52.598Z,97.91
2023-02-21T23:14:26.887Z,97.48
2023-02-21T23:17:01.426Z,97.39
2023-02-21T23:19:34.508Z,97.61
2023-02-21T23:22:09.969Z,96.90
2023-02-21T23:24:45.777Z,97.52
2023-02-21T23:27:20.986Z,97.50
2023-02-21T23:29:54.098Z,97.19
2023-02-21T23:32:28.765Z,97.27
2023-02-21T23:35:01.682Z,96.97
2023-02-21T23:37:42.808Z,96.99
2023-02-21T23:40:18.159Z,97.21
2023-02-21T23:42:54.422Z,97.31
2023-02-21T23:45:27.212Z,97.69
2023-02-21T23:48:01.297Z,97.92
2023-02-21T23:50:34.332Z,97.09
2023-02-21T23:53:09.579Z,97.85
2023-02-21T23:55:43.660Z,97.38
2023-02-21T23:58:19.322Z,96.90
